sensor_id;sensor_type;location;lat;lon;timestamp;P1;durP1;ratioP1;P2;durP2;ratioP2
36585;SDS011;22591;48.314;11.562;2022-09-03T00:07:25;3.90;;;1.88;;
36585;SDS011;22591;48.314;11.562;2022-09-03T00:10:01;3.50;;;1.60;;
36585;SDS011;22591;48.314;11.562;2022-09-03T00:12:32;1.70;;;1.52;;
36585;SDS011;22591;48.314;11.562;2022-09-03T00:15:14;3.13;;;2.25;;
36585;SDS011;22591;48.314;11.562;2022-09-03T00:22:57;2.83;;;1.60;;
36585;SDS011;22591;48.314;11.562;2022-09-03T00:28:27;2.05;;;1.80;;
36585;SDS011;22591;48.314;11.562;2022-09-03T00:33:59;2.40;;;2.08;;
36585;SDS011;22591;48.314;11.562;2022-09-03T00:36:34;2.55;;;1.80;;
36585;SDS011;22591;48.314;11.562;2022-09-03T00:39:10;4.38;;;2.55;;
36585;SDS011;22591;48.314;11.562;2022-09-03T00:41:45;2.13;;;2.03;;
36585;SDS011;22591;48.314;11.562;2022-09-03T00:47:26;3.83;;;2.15;;
36585;SDS011;22591;48.314;11.562;2022-09-03T00:50:08;2.00;;;1.80;;
36585;SDS011;22591;48.314;11.562;2022-09-03T01:01:04;4.60;;;2.08;;
36585;SDS011;22591;48.314;11.562;2022-09-03T01:07:11;2.17;;;2.08;;
36585;SDS011;22591;48.314;11.562;2022-09-03T01:12:08;2.17;;;2.00;;
36585;SDS011;22591;48.314;11.562;2022-09-03T01:15:39;3.17;;;2.00;;
36585;SDS011;22591;48.314;11.562;2022-09-03T01:17:50;3.55;;;2.22;;
36585;SDS011;22591;48.314;11.562;2022-09-03T01:23:32;2.95;;;2.03;;
36585;SDS011;22591;48.314;11.562;2022-09-03T01:26:28;4.00;;;2.40;;
36585;SDS011;22591;48.314;11.562;2022-09-03T01:29:35;3.90;;;2.58;;
36585;SDS011;22591;48.314;11.562;2022-09-03T01:32:06;2.50;;;2.30;;
36585;SDS011;22591;48.314;11.562;2022-09-03T01:40:02;2.50;;;1.85;;
36585;SDS011;22591;48.314;11.562;2022-09-03T01:42:51;2.47;;;2.38;;
36585;SDS011;22591;48.314;11.562;2022-09-03T02:02:37;2.30;;;2.20;;
36585;SDS011;22591;48.314;11.562;2022-09-03T02:05:06;2.40;;;2.30;;
36585;SDS011;22591;48.314;11.562;2022-09-03T02:07:43;2.20;;;2.10;;
36585;SDS011;22591;48.314;11.562;2022-09-03T02:10:18;2.38;;;2.28;;
36585;SDS011;22591;48.314;11.562;2022-09-03T02:12:47;3.78;;;2.22;;
36585;SDS011;22591;48.314;11.562;2022-09-03T02:15:17;4.63;;;2.53;;
36585;SDS011;22591;48.314;11.562;2022-09-03T02:17:46;3.85;;;2.78;;
36585;SDS011;22591;48.314;11.562;2022-09-03T02:20:18;2.50;;;2.40;;
36585;SDS011;22591;48.314;11.562;2022-09-03T02:22:46;2.80;;;2.60;;
36585;SDS011;22591;48.314;11.562;2022-09-03T02:25:13;2.45;;;2.35;;
36585;SDS011;22591;48.314;11.562;2022-09-03T02:27:40;2.40;;;2.30;;
36585;SDS011;22591;48.314;11.562;2022-09-03T02:30:07;2.50;;;2.40;;
36585;SDS011;22591;48.314;11.562;2022-09-03T02:32:33;3.38;;;2.60;;
36585;SDS011;22591;48.314;11.562;2022-09-03T02:34:58;2.72;;;2.53;;
36585;SDS011;22591;48.314;11.562;2022-09-03T02:37:24;2.40;;;2.30;;
36585;SDS011;22591;48.314;11.562;2022-09-03T02:39:50;3.00;;;2.80;;
36585;SDS011;22591;48.314;11.562;2022-09-03T02:42:16;2.97;;;2.78;;
36585;SDS011;22591;48.314;11.562;2022-09-03T02:44:51;2.85;;;2.67;;
36585;SDS011;22591;48.314;11.562;2022-09-03T02:47:21;2.40;;;2.30;;
36585;SDS011;22591;48.314;11.562;2022-09-03T02:49:53;3.00;;;2.80;;
36585;SDS011;22591;48.314;11.562;2022-09-03T02:52:18;2.40;;;2.30;;
36585;SDS011;22591;48.314;11.562;2022-09-03T02:54:44;2.65;;;2.45;;
36585;SDS011;22591;48.314;11.562;2022-09-03T02:57:11;2.70;;;2.50;;
36585;SDS011;22591;48.314;11.562;2022-09-03T02:59:38;2.78;;;2.58;;
36585;SDS011;22591;48.314;11.562;2022-09-03T03:02:05;3.78;;;2.30;;
36585;SDS011;22591;48.314;11.562;2022-09-03T03:04:31;2.85;;;2.58;;
36585;SDS011;22591;48.314;11.562;2022-09-03T03:06:57;2.70;;;2.60;;
36585;SDS011;22591;48.314;11.562;2022-09-03T03:09:23;6.82;;;3.00;;
36585;SDS011;22591;48.314;11.562;2022-09-03T03:11:48;3.20;;;2.92;;
36585;SDS011;22591;48.314;11.562;2022-09-03T03:14:15;2.85;;;2.75;;
36585;SDS011;22591;48.314;11.562;2022-09-03T03:16:41;2.88;;;2.78;;
36585;SDS011;22591;48.314;11.562;2022-09-03T03:19:07;3.40;;;2.85;;
36585;SDS011;22591;48.314;11.562;2022-09-03T03:21:33;5.85;;;3.33;;
36585;SDS011;22591;48.314;11.562;2022-09-03T03:23:59;3.22;;;2.78;;
36585;SDS011;22591;48.314;11.562;2022-09-03T03:26:26;3.45;;;3.22;;
36585;SDS011;22591;48.314;11.562;2022-09-03T03:28:55;4.40;;;3.10;;
36585;SDS011;22591;48.314;11.562;2022-09-03T03:31:22;3.10;;;2.90;;
36585;SDS011;22591;48.314;11.562;2022-09-03T03:33:51;4.00;;;3.13;;
36585;SDS011;22591;48.314;11.562;2022-09-03T03:36:28;3.53;;;3.33;;
36585;SDS011;22591;48.314;11.562;2022-09-03T03:38:55;3.40;;;3.10;;
36585;SDS011;22591;48.314;11.562;2022-09-03T03:41:24;3.10;;;2.90;;
36585;SDS011;22591;48.314;11.562;2022-09-03T03:44:02;3.53;;;3.22;;
36585;SDS011;22591;48.314;11.562;2022-09-03T03:46:30;3.42;;;3.13;;
36585;SDS011;22591;48.314;11.562;2022-09-03T03:48:58;5.78;;;3.53;;
36585;SDS011;22591;48.314;11.562;2022-09-03T03:51:26;3.55;;;3.28;;
36585;SDS011;22591;48.314;11.562;2022-09-03T03:53:54;3.90;;;3.50;;
36585;SDS011;22591;48.314;11.562;2022-09-03T03:56:22;3.35;;;3.10;;
36585;SDS011;22591;48.314;11.562;2022-09-03T03:58:49;3.40;;;3.20;;
36585;SDS011;22591;48.314;11.562;2022-09-03T04:01:17;4.35;;;3.95;;
36585;SDS011;22591;48.314;11.562;2022-09-03T04:03:44;3.13;;;2.92;;
36585;SDS011;22591;48.314;11.562;2022-09-03T04:06:11;3.15;;;2.85;;
36585;SDS011;22591;48.314;11.562;2022-09-03T04:08:39;3.65;;;3.35;;
36585;SDS011;22591;48.314;11.562;2022-09-03T04:11:07;5.70;;;3.50;;
36585;SDS011;22591;48.314;11.562;2022-09-03T04:13:36;3.85;;;3.13;;
36585;SDS011;22591;48.314;11.562;2022-09-03T04:16:07;3.50;;;3.30;;
36585;SDS011;22591;48.314;11.562;2022-09-03T04:18:37;3.33;;;3.05;;
36585;SDS011;22591;48.314;11.562;2022-09-03T04:21:08;3.75;;;3.13;;
36585;SDS011;22591;48.314;11.562;2022-09-03T04:23:36;3.58;;;3.38;;
36585;SDS011;22591;48.314;11.562;2022-09-03T04:26:06;3.60;;;3.37;;
36585;SDS011;22591;48.314;11.562;2022-09-03T04:28:33;3.72;;;3.42;;
36585;SDS011;22591;48.314;11.562;2022-09-03T04:31:01;4.13;;;3.83;;
36585;SDS011;22591;48.314;11.562;2022-09-03T04:38:36;4.10;;;3.80;;
36585;SDS011;22591;48.314;11.562;2022-09-03T04:41:04;3.72;;;3.40;;
36585;SDS011;22591;48.314;11.562;2022-09-03T04:43:34;4.05;;;3.75;;
36585;SDS011;22591;48.314;11.562;2022-09-03T04:46:02;3.78;;;3.00;;
36585;SDS011;22591;48.314;11.562;2022-09-03T04:48:31;3.72;;;3.20;;
36585;SDS011;22591;48.314;11.562;2022-09-03T04:51:05;3.40;;;3.10;;
36585;SDS011;22591;48.314;11.562;2022-09-03T04:53:36;3.53;;;3.00;;
36585;SDS011;22591;48.314;11.562;2022-09-03T04:56:10;3.78;;;3.45;;
36585;SDS011;22591;48.314;11.562;2022-09-03T04:58:38;3.45;;;3.15;;
36585;SDS011;22591;48.314;11.562;2022-09-03T05:01:07;4.00;;;3.70;;
36585;SDS011;22591;48.314;11.562;2022-09-03T05:03:34;3.30;;;3.10;;
36585;SDS011;22591;48.314;11.562;2022-09-03T05:06:01;3.03;;;2.83;;
36585;SDS011;22591;48.314;11.562;2022-09-03T05:08:28;2.80;;;2.60;;
36585;SDS011;22591;48.314;11.562;2022-09-03T05:11:00;3.97;;;3.00;;
36585;SDS011;22591;48.314;11.562;2022-09-03T05:13:29;3.63;;;2.72;;
36585;SDS011;22591;48.314;11.562;2022-09-03T05:16:04;2.60;;;2.40;;
36585;SDS011;22591;48.314;11.562;2022-09-03T05:18:35;3.03;;;2.47;;
36585;SDS011;22591;48.314;11.562;2022-09-03T05:21:03;2.75;;;2.50;;
36585;SDS011;22591;48.314;11.562;2022-09-03T05:23:31;4.60;;;2.83;;
36585;SDS011;22591;48.314;11.562;2022-09-03T05:26:02;3.25;;;2.97;;
36585;SDS011;22591;48.314;11.562;2022-09-03T05:28:29;2.78;;;2.53;;
36585;SDS011;22591;48.314;11.562;2022-09-03T05:31:09;2.90;;;2.70;;
36585;SDS011;22591;48.314;11.562;2022-09-03T05:33:42;3.05;;;2.38;;
36585;SDS011;22591;48.314;11.562;2022-09-03T05:36:12;3.05;;;2.85;;
36585;SDS011;22591;48.314;11.562;2022-09-03T05:38:40;3.88;;;2.90;;
36585;SDS011;22591;48.314;11.562;2022-09-03T05:41:07;4.57;;;3.30;;
36585;SDS011;22591;48.314;11.562;2022-09-03T05:43:35;5.97;;;2.90;;
36585;SDS011;22591;48.314;11.562;2022-09-03T05:46:08;3.70;;;2.97;;
36585;SDS011;22591;48.314;11.562;2022-09-03T05:48:36;5.85;;;2.80;;
36585;SDS011;22591;48.314;11.562;2022-09-03T05:53:31;3.65;;;3.08;;
36585;SDS011;22591;48.314;11.562;2022-09-03T05:55:59;3.33;;;3.13;;
36585;SDS011;22591;48.314;11.562;2022-09-03T05:58:30;3.15;;;2.83;;
36585;SDS011;22591;48.314;11.562;2022-09-03T06:00:56;3.13;;;2.78;;
36585;SDS011;22591;48.314;11.562;2022-09-03T06:03:22;3.13;;;2.92;;
36585;SDS011;22591;48.314;11.562;2022-09-03T06:05:52;2.65;;;2.45;;
36585;SDS011;22591;48.314;11.562;2022-09-03T06:08:20;3.83;;;2.42;;
36585;SDS011;22591;48.314;11.562;2022-09-03T06:10:47;3.38;;;3.08;;
36585;SDS011;22591;48.314;11.562;2022-09-03T06:13:14;2.97;;;2.78;;
36585;SDS011;22591;48.314;11.562;2022-09-03T06:15:40;2.80;;;2.60;;
36585;SDS011;22591;48.314;11.562;2022-09-03T06:18:05;3.50;;;3.28;;
36585;SDS011;22591;48.314;11.562;2022-09-03T06:20:31;4.63;;;3.28;;
36585;SDS011;22591;48.314;11.562;2022-09-03T06:22:57;2.88;;;2.75;;
36585;SDS011;22591;48.314;11.562;2022-09-03T06:25:23;3.90;;;3.10;;
36585;SDS011;22591;48.314;11.562;2022-09-03T06:27:50;3.17;;;2.90;;
36585;SDS011;22591;48.314;11.562;2022-09-03T06:30:16;3.00;;;2.70;;
36585;SDS011;22591;48.314;11.562;2022-09-03T06:32:43;4.85;;;3.25;;
36585;SDS011;22591;48.314;11.562;2022-09-03T06:35:09;3.08;;;2.78;;
36585;SDS011;22591;48.314;11.562;2022-09-03T06:37:38;6.78;;;3.42;;
36585;SDS011;22591;48.314;11.562;2022-09-03T06:40:04;2.80;;;2.60;;
36585;SDS011;22591;48.314;11.562;2022-09-03T06:42:35;9.23;;;3.28;;
36585;SDS011;22591;48.314;11.562;2022-09-03T06:45:00;7.40;;;3.22;;
36585;SDS011;22591;48.314;11.562;2022-09-03T06:47:27;7.28;;;3.47;;
36585;SDS011;22591;48.314;11.562;2022-09-03T06:49:54;4.18;;;3.53;;
36585;SDS011;22591;48.314;11.562;2022-09-03T06:52:20;4.65;;;3.60;;
36585;SDS011;22591;48.314;11.562;2022-09-03T06:54:47;3.33;;;2.72;;
36585;SDS011;22591;48.314;11.562;2022-09-03T06:57:13;4.07;;;3.20;;
36585;SDS011;22591;48.314;11.562;2022-09-03T06:59:38;4.13;;;3.33;;
36585;SDS011;22591;48.314;11.562;2022-09-03T07:02:04;9.23;;;3.10;;
36585;SDS011;22591;48.314;11.562;2022-09-03T07:04:30;4.55;;;3.47;;
36585;SDS011;22591;48.314;11.562;2022-09-03T07:06:58;4.80;;;2.97;;
36585;SDS011;22591;48.314;11.562;2022-09-03T07:09:26;3.92;;;3.53;;
36585;SDS011;22591;48.314;11.562;2022-09-03T07:11:53;3.47;;;3.15;;
36585;SDS011;22591;48.314;11.562;2022-09-03T07:14:20;4.60;;;3.55;;
36585;SDS011;22591;48.314;11.562;2022-09-03T07:16:48;7.15;;;3.83;;
36585;SDS011;22591;48.314;11.562;2022-09-03T07:19:14;11.20;;;4.07;;
36585;SDS011;22591;48.314;11.562;2022-09-03T07:21:40;5.40;;;3.67;;
36585;SDS011;22591;48.314;11.562;2022-09-03T07:24:07;5.70;;;3.55;;
36585;SDS011;22591;48.314;11.562;2022-09-03T07:26:34;5.20;;;3.70;;
36585;SDS011;22591;48.314;11.562;2022-09-03T07:29:02;3.47;;;3.17;;
36585;SDS011;22591;48.314;11.562;2022-09-03T07:31:30;3.90;;;3.63;;
36585;SDS011;22591;48.314;11.562;2022-09-03T07:33:58;3.08;;;2.88;;
36585;SDS011;22591;48.314;11.562;2022-09-03T07:36:28;3.22;;;3.03;;
36585;SDS011;22591;48.314;11.562;2022-09-03T07:38:55;4.15;;;3.72;;
36585;SDS011;22591;48.314;11.562;2022-09-03T07:41:24;3.15;;;2.88;;
36585;SDS011;22591;48.314;11.562;2022-09-03T07:43:52;4.13;;;3.72;;
36585;SDS011;22591;48.314;11.562;2022-09-03T07:46:21;4.78;;;3.63;;
36585;SDS011;22591;48.314;11.562;2022-09-03T07:48:57;3.20;;;2.88;;
36585;SDS011;22591;48.314;11.562;2022-09-03T07:51:27;3.45;;;2.83;;
36585;SDS011;22591;48.314;11.562;2022-09-03T07:53:57;4.32;;;3.50;;
36585;SDS011;22591;48.314;11.562;2022-09-03T07:56:25;4.63;;;4.22;;
36585;SDS011;22591;48.314;11.562;2022-09-03T07:58:52;4.25;;;3.67;;
36585;SDS011;22591;48.314;11.562;2022-09-03T08:01:20;7.00;;;3.90;;
36585;SDS011;22591;48.314;11.562;2022-09-03T08:03:50;3.97;;;3.60;;
36585;SDS011;22591;48.314;11.562;2022-09-03T08:06:17;3.83;;;3.00;;
36585;SDS011;22591;48.314;11.562;2022-09-03T08:08:45;4.18;;;3.50;;
36585;SDS011;22591;48.314;11.562;2022-09-03T08:11:12;3.85;;;3.53;;
36585;SDS011;22591;48.314;11.562;2022-09-03T08:13:43;5.63;;;3.38;;
36585;SDS011;22591;48.314;11.562;2022-09-03T08:16:11;8.05;;;3.30;;
36585;SDS011;22591;48.314;11.562;2022-09-03T08:18:38;4.82;;;3.35;;
36585;SDS011;22591;48.314;11.562;2022-09-03T08:21:22;4.47;;;3.38;;
36585;SDS011;22591;48.314;11.562;2022-09-03T08:23:49;9.55;;;3.45;;
36585;SDS011;22591;48.314;11.562;2022-09-03T08:26:17;3.33;;;3.10;;
36585;SDS011;22591;48.314;11.562;2022-09-03T08:28:44;6.28;;;3.15;;
36585;SDS011;22591;48.314;11.562;2022-09-03T08:31:11;4.95;;;3.55;;
36585;SDS011;22591;48.314;11.562;2022-09-03T08:33:39;3.50;;;3.30;;
36585;SDS011;22591;48.314;11.562;2022-09-03T08:36:09;3.90;;;3.40;;
36585;SDS011;22591;48.314;11.562;2022-09-03T08:38:41;4.32;;;3.22;;
36585;SDS011;22591;48.314;11.562;2022-09-03T08:47:35;3.60;;;3.30;;
36585;SDS011;22591;48.314;11.562;2022-09-03T08:49:51;4.07;;;3.58;;
36585;SDS011;22591;48.314;11.562;2022-09-03T08:52:25;4.05;;;3.65;;
36585;SDS011;22591;48.314;11.562;2022-09-03T08:55:01;4.05;;;3.75;;
36585;SDS011;22591;48.314;11.562;2022-09-03T08:57:46;4.00;;;3.20;;
36585;SDS011;22591;48.314;11.562;2022-09-03T09:00:19;5.88;;;3.90;;
36585;SDS011;22591;48.314;11.562;2022-09-03T09:02:50;3.03;;;2.90;;
36585;SDS011;22591;48.314;11.562;2022-09-03T09:08:12;4.88;;;4.30;;
36585;SDS011;22591;48.314;11.562;2022-09-03T09:10:46;3.60;;;3.30;;
36585;SDS011;22591;48.314;11.562;2022-09-03T09:15:47;3.58;;;3.30;;
36585;SDS011;22591;48.314;11.562;2022-09-03T09:20:48;5.45;;;3.60;;
36585;SDS011;22591;48.314;11.562;2022-09-03T09:25:51;4.18;;;3.45;;
36585;SDS011;22591;48.314;11.562;2022-09-03T09:28:19;5.25;;;3.50;;
36585;SDS011;22591;48.314;11.562;2022-09-03T09:30:50;4.25;;;3.28;;
36585;SDS011;22591;48.314;11.562;2022-09-03T09:33:18;3.20;;;2.90;;
36585;SDS011;22591;48.314;11.562;2022-09-03T09:35:45;3.20;;;3.00;;
36585;SDS011;22591;48.314;11.562;2022-09-03T09:38:11;4.88;;;3.50;;
36585;SDS011;22591;48.314;11.562;2022-09-03T09:40:38;3.83;;;3.38;;
36585;SDS011;22591;48.314;11.562;2022-09-03T09:43:10;2.78;;;2.67;;
36585;SDS011;22591;48.314;11.562;2022-09-03T09:45:41;5.85;;;2.47;;
36585;SDS011;22591;48.314;11.562;2022-09-03T09:51:02;2.90;;;2.72;;
36585;SDS011;22591;48.314;11.562;2022-09-03T09:53:37;4.13;;;3.00;;
36585;SDS011;22591;48.314;11.562;2022-09-03T09:56:04;2.90;;;2.70;;
36585;SDS011;22591;48.314;11.562;2022-09-03T09:58:32;2.80;;;2.60;;
36585;SDS011;22591;48.314;11.562;2022-09-03T10:03:38;3.65;;;2.90;;
36585;SDS011;22591;48.314;11.562;2022-09-03T10:06:29;3.25;;;2.90;;
36585;SDS011;22591;48.314;11.562;2022-09-03T10:09:15;2.95;;;2.40;;
36585;SDS011;22591;48.314;11.562;2022-09-03T10:11:46;3.03;;;2.83;;
36585;SDS011;22591;48.314;11.562;2022-09-03T10:14:17;2.35;;;2.25;;
36585;SDS011;22591;48.314;11.562;2022-09-03T10:16:53;2.55;;;2.45;;
36585;SDS011;22591;48.314;11.562;2022-09-03T10:19:28;2.42;;;2.13;;
36585;SDS011;22591;48.314;11.562;2022-09-03T10:22:15;2.72;;;2.53;;
36585;SDS011;22591;48.314;11.562;2022-09-03T10:24:50;4.03;;;2.60;;
36585;SDS011;22591;48.314;11.562;2022-09-03T10:27:21;2.45;;;2.17;;
36585;SDS011;22591;48.314;11.562;2022-09-03T10:29:48;2.25;;;2.00;;
36585;SDS011;22591;48.314;11.562;2022-09-03T10:35:18;2.00;;;1.90;;
36585;SDS011;22591;48.314;11.562;2022-09-03T10:37:58;3.35;;;2.20;;
36585;SDS011;22591;48.314;11.562;2022-09-03T10:43:55;2.58;;;2.17;;
36585;SDS011;22591;48.314;11.562;2022-09-03T10:49:27;3.05;;;2.47;;
36585;SDS011;22591;48.314;11.562;2022-09-03T10:52:16;3.00;;;2.40;;
36585;SDS011;22591;48.314;11.562;2022-09-03T11:00:45;2.10;;;2.00;;
36585;SDS011;22591;48.314;11.562;2022-09-03T11:05:52;1.92;;;1.83;;
36585;SDS011;22591;48.314;11.562;2022-09-03T11:08:38;2.25;;;2.10;;
36585;SDS011;22591;48.314;11.562;2022-09-03T11:11:19;2.10;;;2.00;;
36585;SDS011;22591;48.314;11.562;2022-09-03T11:16:53;3.50;;;2.33;;
36585;SDS011;22591;48.314;11.562;2022-09-03T11:22:24;2.45;;;1.98;;
36585;SDS011;22591;48.314;11.562;2022-09-03T11:24:55;2.70;;;2.50;;
36585;SDS011;22591;48.314;11.562;2022-09-03T11:30:08;2.63;;;2.42;;
36585;SDS011;22591;48.314;11.562;2022-09-03T11:35:23;2.15;;;2.05;;
36585;SDS011;22591;48.314;11.562;2022-09-03T11:38:20;2.80;;;2.35;;
36585;SDS011;22591;48.314;11.562;2022-09-03T11:43:27;1.90;;;1.80;;
36585;SDS011;22591;48.314;11.562;2022-09-03T11:48:45;2.10;;;2.00;;
36585;SDS011;22591;48.314;11.562;2022-09-03T11:51:32;2.20;;;2.10;;
36585;SDS011;22591;48.314;11.562;2022-09-03T11:54:44;2.08;;;1.98;;
36585;SDS011;22591;48.314;11.562;2022-09-03T11:57:02;5.63;;;2.20;;
36585;SDS011;22591;48.314;11.562;2022-09-03T11:59:39;2.30;;;2.20;;
36585;SDS011;22591;48.314;11.562;2022-09-03T12:07:29;2.22;;;2.13;;
36585;SDS011;22591;48.314;11.562;2022-09-03T12:10:34;1.85;;;1.75;;
36585;SDS011;22591;48.314;11.562;2022-09-03T12:16:03;1.70;;;1.60;;
36585;SDS011;22591;48.314;11.562;2022-09-03T12:18:39;4.35;;;2.33;;
36585;SDS011;22591;48.314;11.562;2022-09-03T12:21:09;2.03;;;1.83;;
36585;SDS011;22591;48.314;11.562;2022-09-03T12:23:48;2.05;;;1.95;;
36585;SDS011;22591;48.314;11.562;2022-09-03T12:26:20;2.78;;;1.50;;
36585;SDS011;22591;48.314;11.562;2022-09-03T12:29:06;1.75;;;1.65;;
36585;SDS011;22591;48.314;11.562;2022-09-03T12:31:49;2.47;;;2.08;;
36585;SDS011;22591;48.314;11.562;2022-09-03T12:34:16;2.03;;;1.92;;
36585;SDS011;22591;48.314;11.562;2022-09-03T12:36:48;2.95;;;2.03;;
36585;SDS011;22591;48.314;11.562;2022-09-03T12:39:26;2.25;;;2.15;;
36585;SDS011;22591;48.314;11.562;2022-09-03T12:42:03;2.30;;;2.10;;
36585;SDS011;22591;48.314;11.562;2022-09-03T12:47:21;1.73;;;1.63;;
36585;SDS011;22591;48.314;11.562;2022-09-03T12:49:49;2.00;;;1.90;;
36585;SDS011;22591;48.314;11.562;2022-09-03T12:52:22;2.90;;;2.00;;
36585;SDS011;22591;48.314;11.562;2022-09-03T12:54:56;1.80;;;1.70;;
36585;SDS011;22591;48.314;11.562;2022-09-03T12:57:45;1.88;;;1.77;;
36585;SDS011;22591;48.314;11.562;2022-09-03T13:00:23;3.20;;;2.25;;
36585;SDS011;22591;48.314;11.562;2022-09-03T13:02:55;2.33;;;2.13;;
36585;SDS011;22591;48.314;11.562;2022-09-03T13:05:31;2.72;;;1.63;;
36585;SDS011;22591;48.314;11.562;2022-09-03T13:07:59;1.88;;;1.77;;
36585;SDS011;22591;48.314;11.562;2022-09-03T13:10:29;1.95;;;1.85;;
36585;SDS011;22591;48.314;11.562;2022-09-03T13:12:58;1.77;;;1.67;;
36585;SDS011;22591;48.314;11.562;2022-09-03T13:15:25;1.63;;;1.52;;
36585;SDS011;22591;48.314;11.562;2022-09-03T13:36:53;1.88;;;1.77;;
36585;SDS011;22591;48.314;11.562;2022-09-03T13:39:34;1.67;;;1.58;;
36585;SDS011;22591;48.314;11.562;2022-09-03T13:42:41;2.13;;;1.90;;
36585;SDS011;22591;48.314;11.562;2022-09-03T13:50:27;1.58;;;1.48;;
36585;SDS011;22591;48.314;11.562;2022-09-03T13:52:56;1.48;;;1.38;;
36585;SDS011;22591;48.314;11.562;2022-09-03T13:55:34;1.90;;;1.80;;
36585;SDS011;22591;48.314;11.562;2022-09-03T13:58:27;1.80;;;1.70;;
36585;SDS011;22591;48.314;11.562;2022-09-03T14:01:25;1.65;;;1.55;;
36585;SDS011;22591;48.314;11.562;2022-09-03T14:04:01;1.80;;;1.70;;
36585;SDS011;22591;48.314;11.562;2022-09-03T14:06:38;1.65;;;1.55;;
36585;SDS011;22591;48.314;11.562;2022-09-03T14:09:12;2.28;;;1.60;;
36585;SDS011;22591;48.314;11.562;2022-09-03T14:15:09;3.40;;;3.10;;
36585;SDS011;22591;48.314;11.562;2022-09-03T14:18:18;2.13;;;2.03;;
36585;SDS011;22591;48.314;11.562;2022-09-03T14:20:56;2.63;;;2.10;;
36585;SDS011;22591;48.314;11.562;2022-09-03T14:26:04;7.25;;;3.90;;
36585;SDS011;22591;48.314;11.562;2022-09-03T14:28:35;6.50;;;3.10;;
36585;SDS011;22591;48.314;11.562;2022-09-03T14:34:01;4.07;;;2.20;;
36585;SDS011;22591;48.314;11.562;2022-09-03T14:47:47;1.75;;;1.50;;
36585;SDS011;22591;48.314;11.562;2022-09-03T15:02:06;2.17;;;2.05;;
36585;SDS011;22591;48.314;11.562;2022-09-03T15:05:03;2.75;;;1.92;;
36585;SDS011;22591;48.314;11.562;2022-09-03T15:13:21;3.72;;;2.40;;
36585;SDS011;22591;48.314;11.562;2022-09-03T15:16:18;3.53;;;2.65;;
36585;SDS011;22591;48.314;11.562;2022-09-03T15:30:07;7.57;;;3.05;;
36585;SDS011;22591;48.314;11.562;2022-09-03T15:32:47;6.32;;;2.88;;
36585;SDS011;22591;48.314;11.562;2022-09-03T15:38:05;4.97;;;3.03;;
36585;SDS011;22591;48.314;11.562;2022-09-03T15:40:54;10.32;;;4.25;;
36585;SDS011;22591;48.314;11.562;2022-09-03T15:43:30;8.85;;;2.60;;
36585;SDS011;22591;48.314;11.562;2022-09-03T15:46:02;3.88;;;2.78;;
36585;SDS011;22591;48.314;11.562;2022-09-03T15:51:32;3.28;;;2.80;;
36585;SDS011;22591;48.314;11.562;2022-09-03T15:56:41;2.80;;;2.60;;
36585;SDS011;22591;48.314;11.562;2022-09-03T15:59:48;3.72;;;2.60;;
36585;SDS011;22591;48.314;11.562;2022-09-03T16:15:24;3.38;;;2.85;;
36585;SDS011;22591;48.314;11.562;2022-09-03T16:20:39;2.40;;;2.20;;
36585;SDS011;22591;48.314;11.562;2022-09-03T16:23:35;4.30;;;2.17;;
36585;SDS011;22591;48.314;11.562;2022-09-03T16:26:12;2.50;;;2.30;;
36585;SDS011;22591;48.314;11.562;2022-09-03T16:28:45;2.20;;;2.00;;
36585;SDS011;22591;48.314;11.562;2022-09-03T16:34:18;3.20;;;1.67;;
36585;SDS011;22591;48.314;11.562;2022-09-03T16:39:57;4.32;;;2.28;;
36585;SDS011;22591;48.314;11.562;2022-09-03T16:42:42;3.65;;;2.15;;
36585;SDS011;22591;48.314;11.562;2022-09-03T16:48:22;1.65;;;1.55;;
36585;SDS011;22591;48.314;11.562;2022-09-03T16:56:54;2.65;;;2.15;;
36585;SDS011;22591;48.314;11.562;2022-09-03T17:19:59;3.67;;;2.30;;
36585;SDS011;22591;48.314;11.562;2022-09-03T17:22:50;3.08;;;2.00;;
36585;SDS011;22591;48.314;11.562;2022-09-03T17:28:15;2.40;;;2.05;;
36585;SDS011;22591;48.314;11.562;2022-09-03T17:38:43;2.40;;;2.20;;
36585;SDS011;22591;48.314;11.562;2022-09-03T17:49:51;3.17;;;2.97;;
36585;SDS011;22591;48.314;11.562;2022-09-03T17:55:13;4.20;;;3.90;;
36585;SDS011;22591;48.314;11.562;2022-09-03T17:58:03;4.47;;;3.13;;
36585;SDS011;22591;48.314;11.562;2022-09-03T18:06:28;3.58;;;2.72;;
36585;SDS011;22591;48.314;11.562;2022-09-03T18:09:06;5.78;;;3.30;;
36585;SDS011;22591;48.314;11.562;2022-09-03T18:11:47;3.33;;;3.03;;
36585;SDS011;22591;48.314;11.562;2022-09-03T18:16:55;3.05;;;2.83;;
36585;SDS011;22591;48.314;11.562;2022-09-03T18:19:49;2.70;;;2.50;;
36585;SDS011;22591;48.314;11.562;2022-09-03T18:22:46;3.90;;;2.80;;
36585;SDS011;22591;48.314;11.562;2022-09-03T18:25:32;3.50;;;3.20;;
36585;SDS011;22591;48.314;11.562;2022-09-03T18:28:21;4.32;;;2.90;;
36585;SDS011;22591;48.314;11.562;2022-09-03T18:31:34;3.90;;;3.08;;
36585;SDS011;22591;48.314;11.562;2022-09-03T18:34:19;2.95;;;2.75;;
36585;SDS011;22591;48.314;11.562;2022-09-03T18:37:11;3.55;;;3.20;;
36585;SDS011;22591;48.314;11.562;2022-09-03T18:39:55;4.18;;;3.42;;
36585;SDS011;22591;48.314;11.562;2022-09-03T18:45:54;3.50;;;3.28;;
36585;SDS011;22591;48.314;11.562;2022-09-03T18:49:12;3.85;;;3.55;;
36585;SDS011;22591;48.314;11.562;2022-09-03T18:58:06;3.30;;;3.00;;
36585;SDS011;22591;48.314;11.562;2022-09-03T19:01:32;3.35;;;3.05;;
36585;SDS011;22591;48.314;11.562;2022-09-03T19:07:45;3.55;;;3.28;;
36585;SDS011;22591;48.314;11.562;2022-09-03T19:10:52;3.38;;;3.17;;
36585;SDS011;22591;48.314;11.562;2022-09-03T19:13:39;3.30;;;2.90;;
36585;SDS011;22591;48.314;11.562;2022-09-03T19:16:29;2.95;;;2.65;;
36585;SDS011;22591;48.314;11.562;2022-09-03T19:20:01;2.50;;;2.30;;
36585;SDS011;22591;48.314;11.562;2022-09-03T19:22:58;3.17;;;2.80;;
36585;SDS011;22591;48.314;11.562;2022-09-03T19:25:42;4.85;;;2.17;;
36585;SDS011;22591;48.314;11.562;2022-09-03T19:28:29;2.35;;;2.15;;
36585;SDS011;22591;48.314;11.562;2022-09-03T19:37:40;5.15;;;2.53;;
36585;SDS011;22591;48.314;11.562;2022-09-03T19:40:50;2.75;;;2.63;;
36585;SDS011;22591;48.314;11.562;2022-09-03T19:46:50;3.03;;;2.83;;
36585;SDS011;22591;48.314;11.562;2022-09-03T19:50:26;3.78;;;3.40;;
36585;SDS011;22591;48.314;11.562;2022-09-03T19:55:44;5.95;;;3.53;;
36585;SDS011;22591;48.314;11.562;2022-09-03T19:58:36;8.35;;;2.95;;
36585;SDS011;22591;48.314;11.562;2022-09-03T20:01:24;2.90;;;2.55;;
36585;SDS011;22591;48.314;11.562;2022-09-03T20:04:15;5.90;;;3.22;;
36585;SDS011;22591;48.314;11.562;2022-09-03T20:07:00;3.17;;;2.97;;
36585;SDS011;22591;48.314;11.562;2022-09-03T20:09:47;2.70;;;2.50;;
36585;SDS011;22591;48.314;11.562;2022-09-03T20:12:35;3.22;;;2.90;;
36585;SDS011;22591;48.314;11.562;2022-09-03T20:15:06;4.03;;;2.70;;
36585;SDS011;22591;48.314;11.562;2022-09-03T20:17:37;3.35;;;3.05;;
36585;SDS011;22591;48.314;11.562;2022-09-03T20:20:18;3.45;;;3.25;;
36585;SDS011;22591;48.314;11.562;2022-09-03T20:23:02;3.72;;;3.50;;
36585;SDS011;22591;48.314;11.562;2022-09-03T20:28:35;3.13;;;2.92;;
36585;SDS011;22591;48.314;11.562;2022-09-03T20:33:53;3.53;;;2.85;;
36585;SDS011;22591;48.314;11.562;2022-09-03T20:42:55;3.47;;;3.20;;
36585;SDS011;22591;48.314;11.562;2022-09-03T20:45:31;3.90;;;2.95;;
36585;SDS011;22591;48.314;11.562;2022-09-03T20:48:24;3.95;;;2.88;;
36585;SDS011;22591;48.314;11.562;2022-09-03T20:51:23;3.63;;;2.63;;
36585;SDS011;22591;48.314;11.562;2022-09-03T20:54:09;5.18;;;3.15;;